North Saint Paul, Minnesota
Current Conditions -  °F | °C
As of 3:03 AM on Monday 22 Dec 2014 (Local Time) from KSTP Reporting Station
Haze Haze  
Wind Chill: 28°   Ceiling: 600
Heat Index: 37°   Visibility: 4mi
Dew Point: 36°   Wind: 14mph
Humidity: 96%   Direction: 150°SSE
Pressure: 29.71"   Gusts: NA
Location:  45.0145°N, 93.0259°W
Report Text: KSTP 220903Z AUTO 15012KT 4SM BR OVC006 03/02 A2971 RMK AO2 UPE00 CIG 005V010 P0000 T00280022
Loading
Personal Weather Stations






























Interactive Weather Map New forecast layout! Learn more

10-Day Weather Forecast

Advertisements
Track Severe Weather on mobile